Time;durP1;ratioP1;P1;durP2;ratioP2;P2;SDS_P1;SDS_P2;PMS_P1;PMS_P2;Temp;Humidity;BMP_temperature;BMP_pressure;BME280_temperature;BME280_humidity;BME280_pressure;Samples;Min_cycle;Max_cycle;Signal;HPM_P1;HPM_P2
2022/12/28 00:02:00;;;;;;;5.50;1.93;;;6.00;99.90;;;;;;5021044;28;20140;-70
2022/12/28 00:04:25;;;;;;;3.90;2.20;;;6.00;99.90;;;;;;5020752;28;20410;-69
2022/12/28 00:06:51;;;;;;;8.77;2.57;;;5.90;99.90;;;;;;5018658;28;20042;-70
2022/12/28 00:09:17;;;;;;;11.23;2.53;;;6.00;99.90;;;;;;5017758;28;20056;-69
2022/12/28 00:11:43;;;;;;;8.67;2.50;;;6.00;99.90;;;;;;5019761;28;20053;-70
2022/12/28 00:14:08;;;;;;;8.07;2.40;;;6.00;99.90;;;;;;5019778;28;20479;-70
2022/12/28 00:16:36;;;;;;;6.47;2.23;;;6.00;99.90;;;;;;5020476;28;20048;-70
2022/12/28 00:19:05;;;;;;;9.20;2.28;;;6.00;99.90;;;;;;5020045;28;20049;-70
2022/12/28 00:21:31;;;;;;;7.28;3.35;;;6.00;99.90;;;;;;5020974;28;20051;-70
2022/12/28 00:23:58;;;;;;;5.40;2.50;;;5.90;99.90;;;;;;5020281;28;20045;-70
2022/12/28 00:26:26;;;;;;;6.75;3.00;;;6.00;99.90;;;;;;5023657;28;20089;-70
2022/12/28 00:28:52;;;;;;;13.35;3.38;;;6.00;99.90;;;;;;5018509;28;20482;-70
2022/12/28 00:31:18;;;;;;;6.63;2.63;;;6.00;99.90;;;;;;5028072;28;20124;-70
2022/12/28 00:33:43;;;;;;;4.35;2.65;;;6.00;99.90;;;;;;5018260;28;20624;-70
2022/12/28 00:36:11;;;;;;;5.63;2.33;;;6.00;99.90;;;;;;5023996;28;20103;-70
2022/12/28 00:38:38;;;;;;;7.30;3.00;;;6.00;99.90;;;;;;5023439;28;20527;-70
2022/12/28 00:41:04;;;;;;;5.55;3.00;;;6.00;99.90;;;;;;5011614;28;20041;-70
2022/12/28 00:43:30;;;;;;;7.45;2.67;;;6.00;99.90;;;;;;5017133;28;20143;-70
2022/12/28 00:45:56;;;;;;;8.48;2.67;;;6.00;99.90;;;;;;5023144;28;20480;-70
2022/12/28 00:48:22;;;;;;;7.60;2.72;;;6.00;99.90;;;;;;5025993;28;20521;-70
2022/12/28 00:50:48;;;;;;;6.53;2.73;;;6.00;99.90;;;;;;5024124;28;20046;-70
2022/12/28 00:53:14;;;;;;;5.93;2.97;;;6.00;99.90;;;;;;5018154;28;20506;-70
2022/12/28 00:55:40;;;;;;;6.40;3.10;;;6.00;99.90;;;;;;5020280;28;20045;-70
2022/12/28 00:58:06;;;;;;;8.48;3.15;;;6.10;99.90;;;;;;5021367;28;20634;-70
2022/12/28 01:00:33;;;;;;;10.52;3.28;;;6.00;99.90;;;;;;5010109;28;20468;-70
2022/12/28 01:02:59;;;;;;;6.20;3.53;;;6.10;99.90;;;;;;5014432;28;20072;-70
2022/12/28 01:05:25;;;;;;;5.40;3.07;;;6.10;99.90;;;;;;5009005;28;20034;-70
2022/12/28 01:07:51;;;;;;;8.77;2.80;;;6.10;99.90;;;;;;5019502;28;20045;-70
2022/12/28 01:10:17;;;;;;;7.30;3.50;;;6.10;99.90;;;;;;5019732;28;20464;-70
2022/12/28 01:12:43;;;;;;;5.75;2.63;;;6.10;99.90;;;;;;5024027;28;20120;-70
2022/12/28 01:15:10;;;;;;;7.83;3.20;;;6.10;99.90;;;;;;5015682;28;20128;-70
2022/12/28 01:17:36;;;;;;;6.60;2.97;;;6.10;99.90;;;;;;5022697;28;20050;-70
2022/12/28 01:20:03;;;;;;;5.22;3.00;;;6.10;99.90;;;;;;5019335;28;20518;-70
2022/12/28 01:22:28;;;;;;;6.47;2.67;;;6.10;99.90;;;;;;5027513;28;20093;-70
2022/12/28 01:24:54;;;;;;;12.33;3.00;;;6.10;99.90;;;;;;5024837;28;20190;-70
2022/12/28 01:27:20;;;;;;;9.38;3.33;;;6.20;99.90;;;;;;5020101;28;20408;-70
2022/12/28 01:29:45;;;;;;;5.67;2.67;;;6.10;99.90;;;;;;5025821;28;20163;-70
2022/12/28 01:32:11;;;;;;;9.63;3.40;;;6.20;99.90;;;;;;5024601;28;20119;-70
2022/12/28 01:34:37;;;;;;;4.67;2.87;;;6.10;99.90;;;;;;5024584;28;20255;-70
2022/12/28 01:37:02;;;;;;;7.57;2.83;;;6.20;99.90;;;;;;5018904;28;20045;-71
2022/12/28 01:39:28;;;;;;;6.33;3.17;;;6.10;99.90;;;;;;5011392;28;20091;-70
2022/12/28 01:41:54;;;;;;;6.83;3.13;;;6.20;99.90;;;;;;5014898;28;20049;-70
2022/12/28 01:44:23;;;;;;;6.95;3.70;;;6.20;99.90;;;;;;5021209;28;20049;-70
2022/12/28 01:46:56;;;;;;;7.63;3.28;;;6.20;99.90;;;;;;5021379;28;20126;-72
2022/12/28 01:49:56;;;;;;;8.93;3.70;;;6.20;99.90;;;;;;5020199;28;20463;-70
2022/12/28 01:52:48;;;;;;;11.43;3.03;;;6.20;99.90;;;;;;4972843;28;20053;-70
2022/12/28 01:55:19;;;;;;;6.50;3.47;;;6.20;99.90;;;;;;5001758;28;20161;-69
2022/12/28 01:57:49;;;;;;;5.85;3.25;;;6.20;99.90;;;;;;5023960;28;20041;-70
2022/12/28 02:00:16;;;;;;;6.32;2.85;;;6.10;99.90;;;;;;5023689;28;20129;-70
2022/12/28 02:02:47;;;;;;;6.57;2.90;;;6.20;99.90;;;;;;5013252;28;20259;-70
2022/12/28 02:05:14;;;;;;;8.23;3.40;;;6.20;99.90;;;;;;5014021;28;20162;-70
2022/12/28 02:07:40;;;;;;;;;;;6.20;99.90;;;;;;5014846;28;20066;-72
2022/12/28 02:10:07;;;;;;;4.70;3.25;;;6.20;99.90;;;;;;5025866;28;20023;-70
2022/12/28 02:12:33;;;;;;;8.10;3.95;;;6.30;99.90;;;;;;5016195;28;20046;-70
2022/12/28 02:14:59;;;;;;;6.95;3.03;;;6.30;99.90;;;;;;5020554;28;20384;-70
2022/12/28 02:17:25;;;;;;;7.88;3.53;;;6.30;99.90;;;;;;5025569;28;20053;-70
2022/12/28 02:19:51;;;;;;;7.32;3.42;;;6.30;99.90;;;;;;5021283;28;20388;-68
2022/12/28 02:22:34;;;;;;;7.10;3.17;;;6.40;99.90;;;;;;5024342;28;20414;-69
2022/12/28 02:25:21;;;;;;;6.97;3.40;;;6.40;99.90;;;;;;5015461;28;20200;-68
2022/12/28 02:28:17;;;;;;;11.55;3.92;;;6.40;99.90;;;;;;5022793;28;20057;-69
2022/12/28 02:30:51;;;;;;;6.47;3.50;;;6.40;99.90;;;;;;5023458;28;20142;-69
2022/12/28 02:33:35;;;;;;;8.60;3.20;;;6.40;99.90;;;;;;5022200;28;20104;-68
2022/12/28 02:36:07;;;;;;;9.02;3.60;;;6.50;99.90;;;;;;5022749;28;20461;-69
2022/12/28 02:38:50;;;;;;;6.57;3.42;;;6.50;99.90;;;;;;5017450;28;20190;-68
2022/12/28 02:41:20;;;;;;;7.90;3.13;;;6.50;99.90;;;;;;5019509;28;20133;-69
2022/12/28 02:43:46;;;;;;;5.35;3.00;;;6.50;99.90;;;;;;5021004;28;20045;-68
2022/12/28 02:52:35;;;;;;;5.80;3.28;;;6.60;99.90;;;;;;5016994;28;20430;-69
2022/12/28 02:58:46;;;;;;;8.02;3.33;;;6.50;99.90;;;;;;5021688;28;20056;-69
2022/12/28 03:01:12;;;;;;;;;;;6.50;99.90;;;;;;5017905;28;20044;-69
2022/12/28 03:04:12;;;;;;;6.43;3.83;;;6.60;99.90;;;;;;5020037;28;20016;-68
2022/12/28 03:10:06;;;;;;;9.68;3.60;;;6.50;99.90;;;;;;5016240;28;20072;-69
2022/12/28 03:12:41;;;;;;;6.13;3.70;;;6.60;99.90;;;;;;5013719;28;20050;-69
2022/12/28 03:15:09;;;;;;;6.10;3.30;;;6.60;99.90;;;;;;5021163;28;20344;-69
2022/12/28 03:31:35;;;;;;;6.53;3.45;;;6.60;99.90;;;;;;5019280;28;20041;-69
2022/12/28 03:34:08;;;;;;;6.82;4.00;;;6.60;99.90;;;;;;5018783;28;20494;-69
2022/12/28 03:37:07;;;;;;;7.65;3.28;;;6.70;99.90;;;;;;5021442;28;20491;-69
2022/12/28 03:40:01;;;;;;;7.82;3.80;;;6.70;99.90;;;;;;5019932;28;20046;-69
2022/12/28 03:45:23;;;;;;;7.25;3.88;;;6.70;99.90;;;;;;5009437;28;20499;-69
2022/12/28 03:47:51;;;;;;;8.50;3.85;;;6.70;99.90;;;;;;5025968;28;20056;-69
2022/12/28 03:50:18;;;;;;;6.88;4.13;;;6.70;99.90;;;;;;5027638;28;20352;-69
2022/12/28 03:52:43;;;;;;;9.27;4.45;;;6.70;99.90;;;;;;5019003;28;20123;-69
2022/12/28 03:55:12;;;;;;;6.43;4.13;;;6.70;99.90;;;;;;5024684;28;20049;-68
2022/12/28 03:57:37;;;;;;;7.10;4.03;;;6.80;99.90;;;;;;5020584;28;20056;-69
2022/12/28 04:00:03;;;;;;;10.60;4.47;;;6.70;99.90;;;;;;5019816;28;20057;-69
2022/12/28 04:02:29;;;;;;;9.95;4.50;;;6.80;99.90;;;;;;5022662;28;20602;-69
2022/12/28 04:04:55;;;;;;;8.40;4.20;;;6.80;99.90;;;;;;5020024;28;20181;-69
2022/12/28 04:07:20;;;;;;;6.63;4.07;;;6.90;99.90;;;;;;5007982;28;20099;-69
2022/12/28 04:09:46;;;;;;;6.33;4.20;;;6.90;99.90;;;;;;5023457;28;20115;-68
2022/12/28 04:12:13;;;;;;;8.77;4.40;;;6.90;99.90;;;;;;5020060;28;20045;-69
2022/12/28 04:14:39;;;;;;;9.35;3.22;;;6.90;99.90;;;;;;5004473;28;20246;-69
2022/12/28 04:17:05;;;;;;;6.18;3.63;;;6.90;99.90;;;;;;5022724;28;20042;-69
2022/12/28 04:19:30;;;;;;;7.90;3.60;;;6.90;99.90;;;;;;5020973;28;20061;-69
2022/12/28 04:21:56;;;;;;;6.27;4.20;;;6.90;99.90;;;;;;5023701;28;20485;-69
2022/12/28 04:24:22;;;;;;;7.87;3.53;;;7.00;99.90;;;;;;5025067;28;20061;-69
2022/12/28 04:26:47;;;;;;;9.47;4.70;;;7.00;99.90;;;;;;5022497;28;20069;-69
2022/12/28 04:29:13;;;;;;;6.50;4.10;;;7.00;99.90;;;;;;5021108;28;20053;-71
2022/12/28 04:31:39;;;;;;;7.73;3.90;;;7.10;99.90;;;;;;5023022;28;20116;-69
2022/12/28 04:34:05;;;;;;;6.13;4.07;;;7.10;99.90;;;;;;5026667;28;20041;-69
2022/12/28 04:36:31;;;;;;;11.60;4.55;;;7.10;99.90;;;;;;5019744;28;20125;-69
2022/12/28 04:38:58;;;;;;;6.32;4.53;;;7.10;99.90;;;;;;5013299;28;20046;-69
2022/12/28 04:41:23;;;;;;;;;;;7.10;99.90;;;;;;5025193;28;20053;-69
2022/12/28 04:43:49;;;;;;;7.57;4.25;;;7.20;99.90;;;;;;5021595;28;20332;-69
2022/12/28 04:46:16;;;;;;;6.50;4.10;;;7.20;99.90;;;;;;5021835;28;20053;-69
2022/12/28 04:48:42;;;;;;;8.07;5.28;;;7.30;99.90;;;;;;5020200;28;20096;-69
2022/12/28 04:51:24;;;;;;;6.78;4.50;;;7.30;99.90;;;;;;5025437;28;20372;-69
2022/12/28 04:53:51;;;;;;;6.32;4.57;;;7.40;99.90;;;;;;5015522;28;20053;-70
2022/12/28 04:56:18;;;;;;;7.93;4.75;;;7.40;99.90;;;;;;5021966;28;20218;-70
2022/12/28 04:58:45;;;;;;;7.55;4.82;;;7.40;99.90;;;;;;5021196;28;20053;-69
2022/12/28 05:01:17;;;;;;;7.63;4.90;;;7.40;99.90;;;;;;5019060;28;20155;-70
2022/12/28 05:03:44;;;;;;;9.52;5.03;;;7.50;99.90;;;;;;5020976;28;20049;-70
2022/12/28 05:06:13;;;;;;;7.80;5.32;;;7.50;99.90;;;;;;5023122;28;20043;-69
2022/12/28 05:08:39;;;;;;;7.63;5.07;;;7.50;99.90;;;;;;5019549;28;20042;-69
2022/12/28 05:11:08;;;;;;;7.03;5.20;;;7.50;99.90;;;;;;5023918;28;20045;-69
2022/12/28 05:13:34;;;;;;;7.63;4.70;;;7.50;99.90;;;;;;5024585;28;20077;-69
2022/12/28 05:16:02;;;;;;;8.55;5.68;;;7.50;99.90;;;;;;5017980;28;20321;-70
2022/12/28 05:18:28;;;;;;;8.20;5.15;;;7.60;99.90;;;;;;5024899;28;20100;-69
2022/12/28 05:21:05;;;;;;;14.07;6.57;;;7.60;99.90;;;;;;5022162;28;20406;-69
2022/12/28 05:23:32;;;;;;;7.90;5.07;;;7.60;99.90;;;;;;5013947;28;20049;-70
2022/12/28 05:25:58;;;;;;;10.27;5.28;;;7.70;99.90;;;;;;5045054;22;20102;-85
2022/12/28 05:28:33;;;;;;;9.70;5.75;;;7.70;99.90;;;;;;4995801;28;20041;-89
2022/12/28 05:31:01;;;;;;;9.75;4.95;;;7.70;99.90;;;;;;4996602;28;20103;-86
2022/12/28 05:33:32;;;;;;;10.57;5.43;;;7.70;99.90;;;;;;4990901;28;20044;-85
2022/12/28 05:36:12;;;;;;;9.82;5.75;;;7.70;99.90;;;;;;4994790;28;20048;-87
2022/12/28 05:38:42;;;;;;;6.35;4.20;;;7.70;99.90;;;;;;5006428;28;20068;-87
2022/12/28 05:41:13;;;;;;;8.13;5.13;;;7.70;99.90;;;;;;4994656;28;20100;-86
2022/12/28 05:43:47;;;;;;;9.73;5.32;;;7.80;99.90;;;;;;5022109;28;20117;-89
2022/12/28 05:46:24;;;;;;;9.95;4.63;;;7.80;99.90;;;;;;5012475;28;20128;-87
2022/12/28 05:48:56;;;;;;;11.70;5.13;;;7.80;99.90;;;;;;5005390;28;20180;-88
2022/12/28 05:51:26;;;;;;;7.60;4.80;;;7.80;99.90;;;;;;5009509;28;20077;-86
2022/12/28 05:53:57;;;;;;;9.73;5.10;;;7.90;99.90;;;;;;5021534;28;20563;-89
2022/12/28 05:56:26;;;;;;;7.72;4.43;;;7.90;99.90;;;;;;5023603;28;20030;-87
2022/12/28 05:58:57;;;;;;;11.15;4.50;;;8.00;99.90;;;;;;4997491;28;20033;-85
2022/12/28 06:01:29;;;;;;;6.03;3.83;;;7.90;99.90;;;;;;5002609;28;20172;-87
2022/12/28 06:03:57;;;;;;;10.95;5.03;;;7.90;99.90;;;;;;5006253;28;20102;-88
2022/12/28 06:06:27;;;;;;;6.72;4.40;;;7.90;99.90;;;;;;5001858;28;20030;-86
2022/12/28 06:08:58;;;;;;;6.72;4.43;;;8.00;99.90;;;;;;5029845;28;20045;-86
2022/12/28 06:11:31;;;;;;;7.63;5.30;;;8.00;99.90;;;;;;5000362;28;20124;-86
2022/12/28 06:13:58;;;;;;;7.30;4.10;;;8.00;99.90;;;;;;5001034;28;20475;-87
2022/12/28 06:16:27;;;;;;;6.63;4.10;;;8.00;99.90;;;;;;5012033;28;20044;-87
2022/12/28 06:18:53;;;;;;;8.25;4.90;;;8.00;99.90;;;;;;5020856;28;20249;-85
2022/12/28 06:21:28;;;;;;;5.88;3.92;;;8.00;99.90;;;;;;5010759;28;20047;-85
2022/12/28 06:24:02;;;;;;;5.80;4.13;;;8.00;99.90;;;;;;5013349;28;20061;-85
2022/12/28 06:26:38;;;;;;;7.55;4.25;;;8.10;99.90;;;;;;5009971;28;20049;-87
2022/12/28 06:29:04;;;;;;;6.65;4.13;;;8.00;99.90;;;;;;5018175;28;20048;-85
2022/12/28 06:31:34;;;;;;;6.00;4.43;;;8.10;99.90;;;;;;5004469;28;20034;-85
2022/12/28 06:34:02;;;;;;;5.50;3.92;;;8.10;99.90;;;;;;4999987;28;20065;-89
2022/12/28 06:36:33;;;;;;;7.10;4.25;;;8.00;99.90;;;;;;5007847;28;20036;-86
2022/12/28 06:39:00;;;;;;;6.25;4.20;;;8.00;99.90;;;;;;5001290;28;20118;-84
2022/12/28 06:41:27;;;;;;;7.22;3.50;;;8.10;99.90;;;;;;5010420;28;20056;-87
2022/12/28 06:43:57;;;;;;;6.47;4.43;;;8.10;99.90;;;;;;5007934;28;20037;-86
2022/12/28 06:46:28;;;;;;;12.52;4.32;;;8.00;99.90;;;;;;5011781;28;20105;-86
2022/12/28 06:49:03;;;;;;;6.05;4.13;;;8.00;99.90;;;;;;4999504;28;20043;-88
2022/12/28 06:51:34;;;;;;;7.75;4.03;;;8.10;99.90;;;;;;5013597;28;20045;-89
2022/12/28 06:54:03;;;;;;;6.75;4.28;;;8.10;99.90;;;;;;5001167;28;20056;-85
2022/12/28 06:56:34;;;;;;;6.03;4.72;;;8.10;99.90;;;;;;5022621;28;20475;-86
2022/12/28 06:59:00;;;;;;;8.90;4.63;;;8.10;99.90;;;;;;5021766;28;20425;-86
2022/12/28 07:01:37;;;;;;;8.32;4.38;;;8.20;99.90;;;;;;5009571;28;20045;-86
2022/12/28 07:04:04;;;;;;;7.75;3.83;;;8.20;99.90;;;;;;5002237;28;20049;-87
2022/12/28 07:06:34;;;;;;;8.52;4.47;;;8.20;99.90;;;;;;5015771;28;20163;-86
2022/12/28 07:09:02;;;;;;;10.63;4.75;;;8.20;99.90;;;;;;5009817;28;20037;-84
2022/12/28 07:11:28;;;;;;;8.30;4.30;;;8.20;99.90;;;;;;5010999;28;20045;-86
2022/12/28 07:13:57;;;;;;;11.18;4.57;;;8.30;99.90;;;;;;5007252;28;20051;-86
2022/12/28 07:16:27;;;;;;;7.35;4.30;;;8.30;99.90;;;;;;4996186;28;20555;-85
2022/12/28 07:18:54;;;;;;;8.57;3.80;;;8.30;99.90;;;;;;5017890;28;20099;-83
2022/12/28 07:21:22;;;;;;;7.10;4.28;;;8.30;99.90;;;;;;5000668;28;20074;-85
2022/12/28 07:23:50;;;;;;;7.80;4.10;;;8.30;99.90;;;;;;5000200;28;20051;-86
2022/12/28 07:26:25;;;;;;;8.25;4.57;;;8.40;99.90;;;;;;5003192;28;20049;-86
2022/12/28 07:28:55;;;;;;;9.40;3.92;;;8.40;99.90;;;;;;5022127;28;20044;-86
2022/12/28 07:31:29;;;;;;;7.78;4.70;;;8.40;99.90;;;;;;5016817;28;20108;-85
2022/12/28 07:33:59;;;;;;;8.10;3.75;;;8.40;99.90;;;;;;5015885;28;20573;-87
2022/12/28 07:36:29;;;;;;;6.50;3.30;;;8.50;99.90;;;;;;4995114;28;20146;-85
2022/12/28 07:38:58;;;;;;;6.80;3.78;;;8.50;99.90;;;;;;5008863;28;20151;-87
2022/12/28 07:41:32;;;;;;;8.27;3.85;;;8.50;99.90;;;;;;5021402;28;20139;-88
2022/12/28 07:44:00;;;;;;;5.10;3.42;;;8.60;99.90;;;;;;5023494;28;20073;-88
2022/12/28 07:46:32;;;;;;;8.48;3.92;;;8.60;99.90;;;;;;5015635;28;20046;-86
2022/12/28 07:48:59;;;;;;;9.02;3.67;;;8.70;99.90;;;;;;5005518;28;20037;-85
2022/12/28 07:51:38;;;;;;;7.70;3.85;;;8.60;99.90;;;;;;4994383;28;20084;-85
2022/12/28 07:54:05;;;;;;;9.70;3.78;;;8.60;99.90;;;;;;5024846;28;20083;-88
2022/12/28 07:56:33;;;;;;;6.82;3.88;;;8.60;99.90;;;;;;4997621;28;20041;-87
2022/12/28 07:59:03;;;;;;;7.80;3.90;;;8.70;99.90;;;;;;5002271;28;20136;-84
2022/12/28 08:01:34;;;;;;;11.38;4.53;;;8.60;99.90;;;;;;5042335;28;20413;-86
2022/12/28 08:04:04;;;;;;;8.23;4.15;;;8.60;99.90;;;;;;5008408;28;20101;-84
2022/12/28 08:06:33;;;;;;;6.95;4.03;;;8.60;99.90;;;;;;5016648;28;20088;-87
2022/12/28 08:09:00;;;;;;;9.10;4.50;;;8.50;99.90;;;;;;5006774;28;20488;-86
2022/12/28 08:11:27;;;;;;;;;;;8.50;99.90;;;;;;4998114;28;20112;-87
2022/12/28 08:13:54;;;;;;;8.20;4.22;;;8.50;99.90;;;;;;5020726;28;19917;-85
2022/12/28 08:16:25;;;;;;;6.15;3.88;;;8.60;99.90;;;;;;5004428;28;20061;-86
2022/12/28 08:18:52;;;;;;;7.78;3.95;;;8.50;99.90;;;;;;5017909;28;20084;-86
2022/12/28 08:21:23;;;;;;;9.98;4.40;;;8.50;99.90;;;;;;5009832;28;20335;-86
2022/12/28 08:23:49;;;;;;;11.85;4.13;;;8.60;99.90;;;;;;5018547;28;20098;-86
2022/12/28 08:26:19;;;;;;;6.88;3.90;;;8.60;99.90;;;;;;5003770;28;20041;-85
2022/12/28 08:28:47;;;;;;;5.40;3.30;;;8.60;99.90;;;;;;5011402;28;20041;-85
2022/12/28 08:31:15;;;;;;;5.95;3.28;;;8.60;99.90;;;;;;5004309;28;20129;-87
2022/12/28 08:33:41;;;;;;;5.60;3.15;;;8.60;99.90;;;;;;5000090;28;20124;-85
2022/12/28 08:36:08;;;;;;;5.70;3.53;;;8.60;99.90;;;;;;5003281;28;20045;-90
2022/12/28 08:38:35;;;;;;;6.88;3.15;;;8.60;99.90;;;;;;5006677;28;20081;-87
2022/12/28 08:41:02;;;;;;;5.03;3.05;;;8.70;99.90;;;;;;5003974;28;20047;-88
2022/12/28 08:43:29;;;;;;;4.57;2.65;;;8.70;99.90;;;;;;5027301;28;20090;-85
2022/12/28 08:46:07;;;;;;;7.75;2.78;;;8.60;99.90;;;;;;5016183;28;20032;-86
2022/12/28 08:48:33;;;;;;;6.15;2.65;;;8.60;99.90;;;;;;5018966;28;20212;-84
2022/12/28 08:51:00;;;;;;;;;;;8.60;99.90;;;;;;4996734;28;20060;-85
2022/12/28 08:53:29;;;;;;;5.72;2.45;;;8.60;99.90;;;;;;5011258;28;19937;-84
2022/12/28 08:55:58;;;;;;;3.45;2.20;;;8.60;99.90;;;;;;4990761;28;20436;-84
2022/12/28 08:58:24;;;;;;;3.63;2.28;;;8.60;99.90;;;;;;5014432;28;20115;-85
2022/12/28 09:00:49;;;;;;;3.17;2.00;;;8.60;99.90;;;;;;5009570;28;20037;-86
2022/12/28 09:03:15;;;;;;;3.07;1.80;;;8.70;99.90;;;;;;5009934;28;20064;-86
2022/12/28 09:05:41;;;;;;;4.70;2.30;;;8.70;99.90;;;;;;5024881;28;20041;-85
2022/12/28 09:08:06;;;;;;;3.90;2.37;;;8.60;99.90;;;;;;5009355;28;20061;-84
2022/12/28 09:10:32;;;;;;;4.50;2.50;;;8.70;99.90;;;;;;5020815;28;20048;-88
2022/12/28 09:12:58;;;;;;;6.83;2.60;;;8.70;99.90;;;;;;5026435;28;20045;-83
2022/12/28 09:15:24;;;;;;;5.53;2.97;;;8.60;99.90;;;;;;5019221;28;20092;-86
2022/12/28 09:17:49;;;;;;;5.73;2.60;;;8.70;99.90;;;;;;5046662;28;20388;-87
2022/12/28 09:20:15;;;;;;;4.27;2.30;;;8.70;99.90;;;;;;5025164;28;20052;-85
2022/12/28 09:22:41;;;;;;;3.60;2.60;;;8.60;99.90;;;;;;5015468;28;20030;-84
2022/12/28 09:25:07;;;;;;;4.95;2.88;;;8.70;99.90;;;;;;5017047;28;20033;-85
2022/12/28 09:27:32;;;;;;;5.88;2.80;;;8.60;99.90;;;;;;5021297;28;20735;-87
2022/12/28 09:29:58;;;;;;;4.47;2.67;;;8.60;99.90;;;;;;5021560;28;20045;-86
2022/12/28 09:32:24;;;;;;;3.77;2.43;;;8.60;99.90;;;;;;5030176;28;20034;-87
2022/12/28 09:34:51;;;;;;;3.97;2.10;;;8.50;99.90;;;;;;5018009;28;20041;-85
2022/12/28 09:37:16;;;;;;;3.17;1.85;;;8.60;99.90;;;;;;5021275;28;20059;-90
2022/12/28 09:39:42;;;;;;;3.97;2.20;;;8.50;99.90;;;;;;5019899;28;20140;-86
2022/12/28 09:42:27;;;;;;;3.27;1.87;;;8.50;99.90;;;;;;5026201;28;20571;-84
2022/12/28 09:45:07;;;;;;;4.78;1.65;;;8.50;99.90;;;;;;5019286;28;20254;-87
2022/12/28 09:47:38;;;;;;;2.88;1.55;;;8.50;99.90;;;;;;5002034;28;20076;-85
2022/12/28 09:50:30;;;;;;;2.83;1.48;;;8.50;99.90;;;;;;5007262;28;20032;-84
2022/12/28 09:53:25;;;;;;;2.72;1.70;;;8.50;99.90;;;;;;5002223;28;20052;-88
2022/12/28 09:56:03;;;;;;;3.15;1.73;;;8.50;99.90;;;;;;5006795;28;20037;-84
2022/12/28 09:58:32;;;;;;;3.92;1.88;;;8.50;99.90;;;;;;5020096;28;20046;-85
2022/12/28 10:01:00;;;;;;;3.33;1.90;;;8.50;99.90;;;;;;5035074;28;20053;-86
2022/12/28 10:03:41;;;;;;;4.45;2.17;;;8.50;99.90;;;;;;5011443;28;20408;-87
2022/12/28 10:06:27;;;;;;;4.10;2.38;;;8.50;99.90;;;;;;5021428;28;20489;-87
2022/12/28 10:09:01;;;;;;;4.18;2.25;;;8.60;99.90;;;;;;5002663;28;20037;-84
2022/12/28 10:11:31;;;;;;;3.78;2.28;;;8.60;99.90;;;;;;5031729;28;20102;-85
2022/12/28 10:14:00;;;;;;;6.25;3.28;;;8.50;99.90;;;;;;4994137;28;20279;-87
2022/12/28 10:16:32;;;;;;;6.05;3.15;;;8.50;99.90;;;;;;5007026;28;20125;-86
2022/12/28 10:18:59;;;;;;;6.25;3.78;;;8.60;99.90;;;;;;5022605;28;20167;-85
2022/12/28 10:21:31;;;;;;;7.18;3.92;;;8.50;99.90;;;;;;4991671;28;20072;-84
2022/12/28 10:23:57;;;;;;;8.32;4.47;;;8.60;99.90;;;;;;4995542;28;20045;-84
2022/12/28 10:26:23;;;;;;;8.48;4.15;;;8.70;99.90;;;;;;5042185;28;20381;-84
2022/12/28 10:28:52;;;;;;;7.57;4.20;;;8.70;99.90;;;;;;5018621;28;20045;-85
2022/12/28 10:31:36;;;;;;;5.18;3.72;;;8.80;99.90;;;;;;5025650;28;20088;-86
2022/12/28 10:34:13;;;;;;;11.55;5.30;;;8.80;99.90;;;;;;5007455;28;20467;-85
2022/12/28 10:36:39;;;;;;;6.80;4.35;;;8.80;99.90;;;;;;5030894;28;20044;-84
2022/12/28 10:39:11;;;;;;;6.80;4.25;;;8.80;99.90;;;;;;5012218;28;20051;-87
2022/12/28 10:41:39;;;;;;;8.35;4.82;;;8.90;99.90;;;;;;5010524;28;20049;-85
2022/12/28 10:44:25;;;;;;;6.93;4.47;;;8.90;99.90;;;;;;5010374;28;20113;-85
2022/12/28 10:47:23;;;;;;;6.15;3.95;;;8.90;99.90;;;;;;5033041;28;20033;-85
2022/12/28 10:49:50;;;;;;;7.88;4.50;;;8.90;99.90;;;;;;5008210;28;20473;-86
2022/12/28 10:52:16;;;;;;;5.32;3.65;;;9.00;99.90;;;;;;5020384;28;20466;-84
2022/12/28 10:54:42;;;;;;;6.00;3.90;;;9.00;99.90;;;;;;5006110;28;20132;-84
2022/12/28 10:57:18;;;;;;;6.45;4.10;;;9.00;99.90;;;;;;5002113;28;20049;-87
2022/12/28 10:59:45;;;;;;;6.32;3.55;;;9.00;99.90;;;;;;5020498;28;20122;-85
2022/12/28 11:02:28;;;;;;;7.07;4.30;;;9.00;99.90;;;;;;5024448;28;20087;-84
2022/12/28 11:05:19;;;;;;;5.65;3.58;;;9.00;99.90;;;;;;5004329;28;20095;-86
2022/12/28 11:07:44;;;;;;;5.70;3.63;;;9.00;99.90;;;;;;5016812;28;20117;-85
2022/12/28 11:10:27;;;;;;;9.33;3.57;;;9.00;99.90;;;;;;4993338;28;20635;-84
2022/12/28 11:12:58;;;;;;;7.28;3.80;;;9.00;99.90;;;;;;5006399;28;20041;-83
2022/12/28 11:15:29;;;;;;;5.32;3.22;;;9.00;99.90;;;;;;5021022;28;20048;-83
2022/12/28 11:18:16;;;;;;;5.13;3.33;;;9.00;99.90;;;;;;5006299;28;20055;-87
2022/12/28 11:20:48;;;;;;;5.45;3.40;;;9.10;99.90;;;;;;5003073;28;20497;-84
2022/12/28 11:23:22;;;;;;;5.65;3.22;;;9.10;99.90;;;;;;5004519;28;20069;-83
2022/12/28 11:28:20;;;;;;;5.43;3.40;;;9.10;99.90;;;;;;5021037;28;20517;-70
2022/12/28 11:30:47;;;;;;;4.93;2.90;;;9.10;99.90;;;;;;5013934;28;20156;-70
2022/12/28 11:33:40;;;;;;;5.95;3.40;;;9.10;99.90;;;;;;5023512;28;20049;-70
2022/12/28 11:36:13;;;;;;;5.25;2.78;;;9.10;99.90;;;;;;5011777;28;20550;-70
2022/12/28 11:38:47;;;;;;;5.85;3.28;;;9.10;99.90;;;;;;5011083;28;20125;-70
2022/12/28 11:41:29;;;;;;;4.35;2.75;;;9.10;99.90;;;;;;4994219;28;20041;-69
2022/12/28 11:44:01;;;;;;;4.90;2.97;;;9.10;99.90;;;;;;4973778;28;20045;-70
2022/12/28 11:46:27;;;;;;;4.60;2.92;;;9.10;99.90;;;;;;5011296;28;20046;-70
2022/12/28 11:49:24;;;;;;;4.77;2.60;;;9.10;99.90;;;;;;4986787;28;20056;-70
2022/12/28 11:52:15;;;;;;;3.88;2.40;;;9.10;99.90;;;;;;5010842;28;20049;-70
2022/12/28 11:55:20;;;;;;;4.05;2.40;;;9.10;99.90;;;;;;5016853;28;20093;-69
2022/12/28 11:57:46;;;;;;;4.18;2.63;;;9.10;99.90;;;;;;4987117;28;20061;-70
2022/12/28 12:00:18;;;;;;;5.07;2.70;;;9.10;99.90;;;;;;4993202;28;20049;-70
2022/12/28 12:02:55;;;;;;;5.45;3.03;;;9.10;99.90;;;;;;4997981;28;20764;-70
2022/12/28 12:05:36;;;;;;;4.97;2.80;;;9.10;99.90;;;;;;4990652;28;20105;-69
2022/12/28 12:08:22;;;;;;;4.82;3.13;;;9.10;99.90;;;;;;5015157;28;20042;-70
2022/12/28 12:11:08;;;;;;;3.78;2.58;;;9.10;99.90;;;;;;4995804;28;20049;-70
2022/12/28 12:13:43;;;;;;;4.70;3.15;;;9.20;99.90;;;;;;4996805;28;20042;-70
2022/12/28 12:16:23;;;;;;;4.43;2.85;;;9.10;99.90;;;;;;5005573;28;20048;-70
2022/12/28 12:18:52;;;;;;;5.18;3.20;;;9.10;99.90;;;;;;5014802;28;20041;-69
2022/12/28 12:21:24;;;;;;;5.07;2.80;;;9.10;99.90;;;;;;4998745;28;20604;-70
2022/12/28 12:23:56;;;;;;;4.75;3.05;;;9.10;99.90;;;;;;4996940;28;20489;-70
2022/12/28 12:26:26;;;;;;;5.53;3.25;;;9.10;99.90;;;;;;5004321;28;20038;-71
2022/12/28 12:28:58;;;;;;;4.20;2.75;;;9.10;99.90;;;;;;5001774;28;20068;-70
2022/12/28 12:31:34;;;;;;;5.90;2.80;;;9.10;99.90;;;;;;4996033;28;20322;-70
2022/12/28 12:34:21;;;;;;;6.18;3.22;;;9.10;99.90;;;;;;4992009;28;20054;-69
2022/12/28 12:37:08;;;;;;;6.55;3.33;;;9.10;99.90;;;;;;5012942;28;20136;-70
2022/12/28 12:39:43;;;;;;;3.75;2.78;;;9.10;99.90;;;;;;4994031;28;20080;-70
2022/12/28 12:42:31;;;;;;;3.60;2.25;;;9.10;99.90;;;;;;4976263;28;20041;-70
2022/12/28 12:45:14;;;;;;;3.63;1.90;;;9.10;99.90;;;;;;4995176;28;20042;-70
2022/12/28 12:47:58;;;;;;;4.32;2.30;;;9.10;99.90;;;;;;5001323;28;20136;-69
2022/12/28 12:50:29;;;;;;;3.65;2.10;;;9.10;99.90;;;;;;4997221;28;20523;-70
2022/12/28 12:53:29;;;;;;;3.88;2.30;;;9.10;99.90;;;;;;4987397;28;20503;-70
2022/12/28 12:56:20;;;;;;;3.30;2.08;;;9.10;99.90;;;;;;4989709;28;20482;-70
2022/12/28 12:59:07;;;;;;;4.65;2.13;;;9.10;99.90;;;;;;4993431;28;20042;-70
2022/12/28 13:01:56;;;;;;;3.75;2.15;;;9.10;99.90;;;;;;4992882;28;20141;-69
2022/12/28 13:04:26;;;;;;;3.75;2.42;;;9.10;99.90;;;;;;4997534;28;20127;-70
2022/12/28 13:06:57;;;;;;;3.72;2.40;;;9.10;99.90;;;;;;4987271;28;20191;-69
2022/12/28 13:09:26;;;;;;;2.97;2.08;;;9.10;99.90;;;;;;4990319;28;20042;-70
2022/12/28 13:11:53;;;;;;;2.97;1.83;;;9.10;99.90;;;;;;5011873;28;20511;-69
2022/12/28 13:14:21;;;;;;;2.83;1.73;;;9.10;99.90;;;;;;4977454;28;20127;-70
2022/12/28 13:16:58;;;;;;;3.42;1.80;;;9.10;99.90;;;;;;5001729;28;20109;-70
2022/12/28 13:19:28;;;;;;;2.90;1.80;;;9.10;99.90;;;;;;5002960;28;20569;-69
2022/12/28 13:21:57;;;;;;;3.22;1.83;;;9.10;99.90;;;;;;5005149;28;20553;-70
2022/12/28 13:24:24;;;;;;;3.42;1.77;;;9.10;99.90;;;;;;5000326;28;20081;-70
2022/12/28 13:26:51;;;;;;;3.75;2.05;;;9.10;99.90;;;;;;4996285;28;20095;-70
2022/12/28 13:29:21;;;;;;;2.80;1.95;;;9.10;99.90;;;;;;5003299;28;20402;-70
2022/12/28 13:31:50;;;;;;;4.03;1.90;;;9.10;99.90;;;;;;5010295;28;20056;-70
2022/12/28 13:34:23;;;;;;;2.38;1.58;;;9.10;99.90;;;;;;5013884;28;20133;-70
2022/12/28 13:36:59;;;;;;;3.08;1.67;;;9.10;99.90;;;;;;5016616;28;20076;-69
2022/12/28 13:39:27;;;;;;;2.92;1.50;;;9.10;99.90;;;;;;4984940;28;20052;-70
2022/12/28 13:42:01;;;;;;;3.78;2.03;;;9.00;99.90;;;;;;4993447;28;20136;-70
2022/12/28 13:44:42;;;;;;;3.13;1.75;;;9.00;99.90;;;;;;4989240;28;20090;-70
2022/12/28 13:47:19;;;;;;;3.92;2.22;;;9.00;99.90;;;;;;4994614;28;20407;-70
2022/12/28 13:50:04;;;;;;;3.45;1.95;;;9.00;99.90;;;;;;5018840;28;20342;-70
2022/12/28 13:52:35;;;;;;;4.25;1.67;;;9.00;99.90;;;;;;5003336;28;20037;-69